Latest Coastal Weather Observations for Bundaberg

IDQ60701

Issued at 8:02 am EST Monday 1 March 2021 (issued every 10 minutes, with the page automatically refreshed every 10 minutes)

About coastal observations | Map of coastal stations | Coastal observations for QLD | Marine services | Other Formats
Station Details ID: 039128 Name: BUNDABERG AERO Lat: -24.91 Lon: 152.32 Height: 30.82 m
Data from the previous 72 hours. | See also: Recent months at Bundaberg
Date/Time
EST
Wind Sea
Height
m
Swell Vis
km
Cloud Weather Temp
°C
Press
MSL
hPa
Rain since
9am
mm
Dir  Spd
kts
Gust
kts
Height
m
Period
s
Dir
01/08:00am ESE 9 11 - - - - 10 Clear - 28.3 1009.0 0.0
01/07:30am SE 8 10 - - - - 10 - - 26.6 1008.8 0.0
01/07:00am ESE 7 9 - - - - 10 - - 25.3 1008.5 0.0
01/06:30am SSE 5 7 - - - - 10 - - 23.3 1008.5 0.0
01/06:00am S 5 7 - - - - 10 - - 22.7 1008.3 0.0
01/05:30am SSE 4 5 - - - - 10 Partly cloudy - 22.9 1008.1 0.0
01/05:00am S 4 5 - - - - 10 Partly cloudy - 23.3 1008.0 0.0
01/04:30am S 6 8 - - - - 10 Partly cloudy - 23.3 1008.0 0.0
01/04:00am S 5 6 - - - - 10 Partly cloudy - 23.4 1008.0 0.0
01/03:30am S 7 9 - - - - 10 Partly cloudy - 23.6 1007.8 0.0
01/03:00am SSW 7 8 - - - - 10 Partly cloudy - 23.6 1008.1 0.0
01/02:30am SSW 5 6 - - - - 10 Partly cloudy - 23.7 1008.3 0.0
01/02:00am SSE 4 7 - - - - 10 Partly cloudy - 23.9 1008.1 0.0
01/01:30am SSW 5 7 - - - - 10 Partly cloudy - 24.3 1008.7 0.0
01/01:00am SSE 5 7 - - - - 10 - - 24.6 1008.7 0.0
01/12:30am SE 5 6 - - - - 10 - - 25.0 1009.1 0.0
01/12:00am SE 5 5 - - - - 10 - - 25.2 1009.5 0.0
 
Date/Time
EST
Wind Sea
Height
m
Swell Vis
km
Cloud Weather Temp
°C
Press
MSL
hPa
Rain since
9am
mm
Dir  Spd
kts
Gust
kts
Height
m
Period
s
Dir
28/11:30pm ESE 7 8 - - - - 10 - - 25.5 1009.7 0.0
28/11:00pm ESE 5 6 - - - - 10 - - 25.4 1010.0 0.0
28/10:30pm ESE 5 6 - - - - 10 - - 25.6 1010.2 0.0
28/10:00pm E 6 7 - - - - 10 Partly cloudy - 25.9 1010.3 0.0
28/09:30pm E 7 9 - - - - 10 - - 26.0 1010.5 0.0
28/09:00pm E 7 8 - - - - 10 Partly cloudy - 26.0 1010.4 0.0
28/08:30pm E 6 9 - - - - 10 - - 26.1 1010.4 0.0
28/08:00pm E 7 9 - - - - 10 - - 26.3 1010.1 0.0
28/07:30pm E 7 9 - - - - 10 - - 26.6 1009.7 0.0
28/07:00pm ENE 10 14 - - - - 10 - - 26.8 1009.3 0.0
28/06:30pm ENE 12 16 - - - - 10 - - 27.2 1008.9 0.0
28/06:00pm ENE 9 12 - - - - 10 Mostly clear - 27.8 1008.6 0.0
28/05:30pm ENE 11 15 - - - - 10 Partly cloudy - 28.5 1008.3 0.0
28/05:00pm ENE 11 17 - - - - 10 Partly cloudy - 29.4 1008.2 0.0
28/04:30pm ENE 13 18 - - - - 10 - - 29.7 1008.1 0.0
28/04:00pm E 13 19 - - - - 10 Partly cloudy - 29.9 1008.1 0.0
28/03:30pm ENE 14 20 - - - - 10 - - 30.5 1008.0 0.0
28/03:00pm E 13 18 - - - - 10 Mostly clear - 30.9 1008.1 0.0
28/02:30pm ENE 12 17 - - - - 10 - - 31.2 1008.5 0.0
28/02:00pm ENE 11 16 - - - - 10 Partly cloudy - 31.8 1008.9 0.0
28/01:30pm ENE 11 15 - - - - 10 Partly cloudy - 30.9 1009.2 0.0
28/01:00pm E 11 15 - - - - 10 Partly cloudy - 30.3 1009.6 0.0
28/12:30pm E 11 14 - - - - 10 Partly cloudy - 30.0 1009.9 0.0
28/12:00pm ESE 11 15 - - - - 10 Cloudy - 30.4 1010.1 0.0
28/11:30am E 10 15 - - - - 10 Partly cloudy - 30.6 1010.3 0.0
28/11:00am E 10 15 - - - - 10 Partly cloudy - 29.7 1010.9 0.0
28/10:30am E 9 14 - - - - 10 Partly cloudy - 29.8 1011.0 0.0
28/10:00am E 10 14 - - - - 10 Partly cloudy - 29.2 1011.0 0.0
28/09:30am ESE 10 13 - - - - 10 Partly cloudy - 28.4 1010.8 0.0
28/09:00am ESE 10 13 - - - - 10 Mostly clear - 27.7 1010.8 0.0
28/08:30am ESE 10 13 - - - - 10 Partly cloudy - 27.3 1010.6 0.0
28/08:00am ESE 8 12 - - - - 10 - - 26.3 1010.5 0.0
28/07:30am SE 8 10 - - - - 10 - - 25.6 1010.4 0.0
28/07:00am SSE 6 9 - - - - 10 Partly cloudy - 24.4 1010.4 0.0
28/06:30am SSE 7 9 - - - - 10 Partly cloudy - 23.7 1010.2 0.0
28/06:00am SSE 6 8 - - - - 10 Mostly cloudy - 23.1 1009.9 0.0
28/05:30am SSE 6 8 - - - - 10 Partly cloudy - 23.1 1009.7 0.0
28/05:00am SSE 5 7 - - - - 10 Partly cloudy - 23.1 1009.5 0.0
28/04:30am S 5 7 - - - - 10 Partly cloudy - 23.2 1009.3 0.0
28/04:00am S 6 8 - - - - 10 Partly cloudy - 23.6 1009.2 0.0
28/03:30am S 5 7 - - - - 10 Partly cloudy - 24.4 1009.2 0.0
28/03:00am ESE 6 8 - - - - 10 Mostly cloudy - 25.5 1009.3 0.0
28/02:30am ESE 6 7 - - - - 10 Partly cloudy - 25.8 1009.6 0.0
28/02:00am SE 5 7 - - - - 10 Partly cloudy - 25.9 1009.8 0.0
28/01:30am ESE 7 9 - - - - 10 Partly cloudy - 25.8 1009.8 0.0
28/01:00am E 7 10 - - - - 10 Partly cloudy - 25.8 1009.9 0.0
28/12:30am E 7 9 - - - - 10 Partly cloudy - 26.0 1010.2 0.0
28/12:00am E 8 11 - - - - 10 Cloudy - 26.0 1010.4 0.0
 
Date/Time
EST
Wind Sea
Height
m
Swell Vis
km
Cloud Weather Temp
°C
Press
MSL
hPa
Rain since
9am
mm
Dir  Spd
kts
Gust
kts
Height
m
Period
s
Dir
27/11:30pm E 8 11 - - - - 10 - - 26.1 1010.6 0.0
27/11:00pm E 9 13 - - - - 10 - - 26.4 1010.7 0.0
27/10:30pm ESE 7 10 - - - - 10 Partly cloudy - 26.4 1010.9 0.0
27/10:00pm ESE 8 10 - - - - 10 Partly cloudy - 26.4 1011.0 0.0
27/09:30pm ESE 8 11 - - - - 10 Partly cloudy - 26.3 1010.9 0.0
27/09:00pm ESE 8 11 - - - - 10 Cloudy - 26.5 1010.9 0.0
27/08:30pm E 9 11 - - - - 10 Partly cloudy - 26.4 1010.8 0.0
27/08:00pm E 8 10 - - - - 10 - - 26.4 1010.5 0.0
27/07:30pm E 7 9 - - - - 10 Partly cloudy - 26.4 1010.3 0.0
27/07:00pm ESE 8 10 - - - - 10 Partly cloudy - 26.4 1010.0 0.0
27/06:30pm E 9 13 - - - - 10 - - 26.6 1009.7 0.0
27/06:00pm E 13 16 - - - - 10 Mostly clear - 27.0 1009.4 0.0
27/05:30pm E 14 17 - - - - 10 Partly cloudy - 27.7 1009.0 0.0
27/05:00pm E 14 19 - - - - 10 Partly cloudy - 28.2 1008.7 0.0
27/04:30pm ENE 11 15 - - - - 10 Partly cloudy - 29.3 1008.4 0.0
27/04:00pm ENE 12 16 - - - - 10 Partly cloudy - 29.9 1008.1 0.0
27/03:30pm E 11 17 - - - - 10 Partly cloudy - 30.2 1008.0 0.0
27/03:00pm E 10 16 - - - - 10 Mostly clear - 31.2 1008.1 0.0
27/02:30pm NE 11 15 - - - - 10 Cloudy - 30.2 1008.5 0.0
27/02:00pm ENE 11 15 - - - - 10 Cloudy - 30.4 1008.8 0.0
27/01:30pm ENE 12 15 - - - - 10 Cloudy - 29.9 1009.3 0.0
27/01:00pm ENE 12 15 - - - - 10 Partly cloudy - 30.1 1009.5 0.0
27/12:30pm E 14 18 - - - - 10 Partly cloudy - 30.0 1009.8 0.0
27/12:00pm E 11 16 - - - - 10 Partly cloudy - 30.1 1010.0 0.0
27/11:30am E 9 17 - - - - 10 Partly cloudy - 30.8 1010.3 0.0
27/11:00am E 11 15 - - - - 10 Partly cloudy - 30.4 1010.7 0.0
27/10:30am E 10 14 - - - - 10 Partly cloudy - 29.5 1010.8 0.0
27/10:00am E 10 14 - - - - 10 Partly cloudy - 29.3 1011.1 0.0
27/09:30am E 11 15 - - - - 10 Partly cloudy - 28.9 1011.0 0.0
27/09:00am ESE 8 15 - - - - 10 Partly cloudy - 29.3 1010.9 0.0
27/08:30am ESE 8 11 - - - - 10 Partly cloudy - 28.3 1011.0 0.0
27/08:00am SSE 7 10 - - - - 10 - - 26.5 1010.9 0.0
27/07:30am SSE 7 9 - - - - 10 - - 24.4 1010.8 0.0
27/07:00am SSE 7 9 - - - - 10 - - 23.6 1010.5 0.0
27/06:30am SSE 6 9 - - - - 10 Partly cloudy - 22.5 1010.3 0.0
27/06:00am S 6 8 - - - - 10 - - 22.2 1009.7 0.0
27/05:30am S 6 7 - - - - 10 Partly cloudy - 22.1 1009.5 0.0
27/05:00am S 6 8 - - - - 10 - - 22.0 1009.2 0.0
27/04:30am S 6 7 - - - - 10 - - 21.7 1009.1 0.0
27/04:00am S 5 7 - - - - 10 - - 21.7 1009.1 0.0
27/03:30am S 6 7 - - - - 10 Partly cloudy - 22.1 1009.0 0.0
27/03:00am SSW 5 6 - - - - 10 Mostly clear - 22.0 1009.1 0.0
27/02:30am S 4 6 - - - - 10 - - 22.6 1009.0 0.0
27/02:00am S 4 5 - - - - 10 - - 22.8 1009.4 0.0
27/01:30am S 5 6 - - - - 10 Partly cloudy - 22.9 1009.6 0.0
27/01:00am SE 3 3 - - - - 10 - - 23.1 1009.8 0.0
27/12:30am E 3 4 - - - - 10 - - 24.0 1010.2 0.0
27/12:00am E 3 4 - - - - 10 - - 24.1 1010.6 0.0
 
Date/Time
EST
Wind Sea
Height
m
Swell Vis
km
Cloud Weather Temp
°C
Press
MSL
hPa
Rain since
9am
mm
Dir  Spd
kts
Gust
kts
Height
m
Period
s
Dir
26/11:30pm E 5 6 - - - - 10 - - 24.3 1010.7 0.0
26/11:00pm E 5 6 - - - - 10 - - 24.2 1010.8 0.0
26/10:30pm ESE 4 5 - - - - 10 - - 24.8 1011.1 0.0
26/10:00pm ESE 4 5 - - - - 10 Partly cloudy - 25.0 1011.4 0.0
26/09:30pm E 6 7 - - - - 10 Partly cloudy - 25.5 1011.3 0.0
26/09:00pm ENE 5 6 - - - - 10 - - 25.8 1011.0 0.0
26/08:30pm NE 7 9 - - - - 10 - - 26.2 1010.9 0.0
26/08:00pm NE 7 10 - - - - 10 - - 26.3 1010.5 0.0
26/07:30pm NE 8 10 - - - - 10 - - 26.5 1010.2 0.0
26/07:00pm NE 9 12 - - - - 10 - - 26.7 1009.8 0.0
26/06:30pm NE 10 13 - - - - 10 - - 27.0 1009.4 0.0
26/06:00pm NE 11 14 - - - - 10 - - 27.7 1009.1 0.0
26/05:30pm ENE 11 14 - - - - 10 Partly cloudy - 28.5 1008.7 0.0
26/05:00pm NE 11 15 - - - - 10 Partly cloudy - 29.1 1008.5 0.0
26/04:30pm NE 12 15 - - - - 10 Partly cloudy - 29.9 1008.2 0.0
26/04:00pm ENE 12 16 - - - - 10 Partly cloudy - 29.6 1007.9 0.0
26/03:30pm ENE 11 17 - - - - 10 - - 30.7 1007.8 0.0
26/03:00pm NE 11 15 - - - - 10 - - 30.8 1008.0 0.0
26/02:30pm NE 12 18 - - - - 10 - - 30.2 1008.3 0.0
26/02:00pm ENE 12 15 - - - - 10 - - 31.2 1008.2 0.0
26/01:30pm E 12 19 - - - - 10 - - 30.2 1008.7 0.0
26/01:00pm E 11 16 - - - - 10 - - 31.2 1008.9 0.0
26/12:30pm E 10 15 - - - - 10 - - 30.7 1009.0 0.0
26/12:00pm ESE 10 16 - - - - 10 Mostly clear - 30.7 1009.4 0.0
26/11:30am E 7 11 - - - - 10 Partly cloudy - 30.3 1009.7 0.0
26/11:00am ENE 9 13 - - - - 10 Partly cloudy - 31.1 1009.9 0.0
26/10:30am ENE 8 12 - - - - 10 Partly cloudy - 29.3 1010.2 0.0
26/10:00am ESE 8 11 - - - - 10 Partly cloudy - 28.2 1010.5 0.0
26/09:30am ENE 6 11 - - - - 10 Partly cloudy - 27.9 1010.5 0.0
26/09:00am E 6 9 - - - - 10 Partly cloudy - 28.0 1010.6 0.0
26/08:30am SE 7 17 - - - - 10 Partly cloudy - 28.5 1010.4 0.0

Other formats

Comma delimited format used in spreadsheet applications
http://www.bom.gov.au/fwo/IDQ60701/IDQ60701.94387.axf

JavaScript Object Notation format (JSON) in row-major order
http://www.bom.gov.au/fwo/IDQ60701/IDQ60701.94387.json

Data quality

Most of these data are generated automatically and are frequently updated. Quality checks on data are not normally performed. It is possible for incorrect values to appear. Refer to information at About Latest Weather Observations and please check the disclaimer before using these data.